Vers la page d'accueil de NAV CANADA Ouverture d'une nouvelle session Chercher sur le site AWWS Clause de non-reponsabilité To the equivalent English page Trucs et astuces FAQ Quoi de neuf sur le site Vers la section Prévisions et observations / NOTAM Vers le site web pour <<Déposer un plan de vol>> Publications et liens importants Mise à jour du profil d'usager Numéros de téléphone des FIC Mes données météo personnelles Données météo de route Données météo régionales Données météo locales Vers la section Prévisions et observations / NOTAM
Requête générée le 2020/07/09 à 11:10:17 UTC. L'information météorologique disponible à ce moment est affichée.

METAR/TAF

Si vous notez des différences entre le METAR/TAF codé et le METAR/TAF en langage clair, veuillez utiliser la version codée. Les bulletins LWIS ne sont pas décodés en langage clair.

OTTAWA/MACDONALD-CARTIER INTL/ON    

METAR CYOW 091100Z 14002KT 15SM FEW080 SCT250 22/21 A2993 RMK AC2CI1 SLP134 DEN TY ALT 1400FT=
METAR
LIEU
CYOW - OTTAWA/MACDONALD-CARTIER INTL/ON
DATE - HEURE
09 JUILLET 2020 - 1100 UTC
VENT
140 VRAIS @ 2  NOEUDS
VISIBILITE
15 MILLES TERR.
PORTEE VISUELLE DE PISTE
METEO
NEBULOSITE
QUELQUES NUAGES (1/8 - 2/8) 8000  PI
NUAGES EPARS (3/8 - 4/8) 25000  PI
TEMP / PT DE ROSEE
22 C / 21 C
ALTIMETRE
29.93 PO HG
TEMPS RECENT
CISAILLEMENT

METAR CYOW 091000Z 16003KT 15SM SCT080 BKN250 20/19 A2991 RMK AC3CI2 SLP129 DEN TY ALT 1100FT=
METAR
LIEU
CYOW - OTTAWA/MACDONALD-CARTIER INTL/ON
DATE - HEURE
09 JUILLET 2020 - 1000 UTC
VENT
160 VRAIS @ 3  NOEUDS
VISIBILITE
15 MILLES TERR.
PORTEE VISUELLE DE PISTE
METEO
NEBULOSITE
NUAGES EPARS (3/8 - 4/8) 8000  PI
NUAGES FRAGMENTES (5/8 - 7/8) 25000  PI
TEMP / PT DE ROSEE
20 C / 19 C
ALTIMETRE
29.91 PO HG
TEMPS RECENT
CISAILLEMENT

METAR CYOW 090900Z 12003KT 15SM FEW080 FEW120 SCT250 20/19 A2990 RMK AC1AC1CI1 P124 DENSITY ALT 1100FT=
METAR
LIEU
CYOW - OTTAWA/MACDONALD-CARTIER INTL/ON
DATE - HEURE
09 JUILLET 2020 - 0900 UTC
VENT
120 VRAIS @ 3  NOEUDS
VISIBILITE
15 MILLES TERR.
PORTEE VISUELLE DE PISTE
METEO
NEBULOSITE
QUELQUES NUAGES (1/8 - 2/8) 8000  PI
QUELQUES NUAGES (1/8 - 2/8) 12000  PI
NUAGES EPARS (3/8 - 4/8) 25000  PI
TEMP / PT DE ROSEE
20 C / 19 C
ALTIMETRE
29.90 PO HG
TEMPS RECENT
CISAILLEMENT

TAF CYOW 090838Z 0909/1006 VRB03KT P6SM FEW070 FM091700 20007KT P6SM SCT070 TEMPO 0917/0924 6SM -SHRA BR BKN070 PROB30 0918/0923 VRB20G30KT 2SM +TSRA BR BKN050CB FM100100 18005KT P6SM SKC RMK NXT FCST BY 091200Z=
TAF
LIEU

CYOW - OTTAWA/MACDONALD-CARTIER INTL/ON
VALIDITE [UTC]
09 JUL - 0838 à
10 JUL - 0600
 
PERIODES
[UTC]
VENT
[DEGRES VRAIS]
VISIBILITE
[MILLES TERR.]
METEO
NEBULOSITE
[PIEDS AGL]
 
09 JUL - 0900 à
09 JUL - 1700
VARIABLE @ 3 NOEUDS
6+
---
7000 QUELQUES
 
09 JUL - 1700 à
10 JUL - 0100
200 @ 7 NOEUDS
6+
---
7000 EPARS
CHANGEMENTS TEMPORAIRES
09 JUL - 1700 à
10 JUL - 0000
 
6
AVERSE DE PLUIE FAIBLE
BRUME
7000 FRAGMENTES
30% PROBABILITE
09 JUL - 1800 à
09 JUL - 2300
VARIABLE @ 20 NOEUDS
RAFALES 30 NOEUDS
2
ORAGE AVEC PLUIE FORTE
BRUME
5000 FRAGMENTES AVEC CUMULONIMBUS
 
10 JUL - 0100 à
10 JUL - 0600
180 @ 5 NOEUDS
6+
---
CIEL DEGAGE
REMARQUES
LA PREVISION SUIVANTE SERA EMISE POUR 1200 UTC LE 09


Votre heure Heure UTC
Données météorologiques fournies par Environnement Canada et NAV CANADA